Time;durP1;ratioP1;P1;durP2;ratioP2;P2;SDS_P1;SDS_P2;PMS_P1;PMS_P2;Temp;Humidity;BMP_temperature;BMP_pressure;BME280_temperature;BME280_humidity;BME280_pressure;Samples;Min_cycle;Max_cycle;Signal;HPM_P1;HPM_P2
2022/08/12 00:54:08;;;;;;;10.68;9.77;;;;;;;;;;5218418;23;20466;-94
2022/08/12 00:56:35;;;;;;;9.13;8.63;;;;;;;;;;4965331;28;20412;-93
2022/08/12 00:59:03;;;;;;;9.60;9.10;;;;;;;;;;4997916;28;20399;-94
2022/08/12 01:12:18;;;;;;;9.43;9.03;;;;;;;;;;5019448;28;20451;-92
2022/08/12 01:17:18;;;;;;;8.77;8.27;;;;;;;;;;5036230;28;20486;-94
2022/08/12 01:22:37;;;;;;;9.87;9.07;;;;;;;;;;5368322;23;20502;-94
2022/08/12 01:25:11;;;;;;;9.37;8.73;;;;;;;;;;5000020;28;20496;-92
2022/08/12 01:27:40;;;;;;;9.90;9.10;;;;;;;;;;4983716;28;20429;-92
2022/08/12 01:48:14;;;;;;;9.67;8.93;;;;;;;;;;5031161;28;20204;-95
2022/08/12 01:50:50;;;;;;;9.60;9.07;;;;;;;;;;5021735;28;20436;-95
2022/08/12 01:53:21;;;;;;;9.77;9.07;;;;;;;;;;4978268;28;20441;-95
2022/08/12 02:01:38;;;;;;;9.93;9.27;;;;;;;;;;5021247;28;20381;-94
2022/08/12 03:13:39;;;;;;;10.27;9.50;;;;;;;;;;5010992;28;20474;-93
2022/08/12 03:21:19;;;;;;;11.45;10.65;;;;;;;;;;5168453;23;20466;-95
2022/08/12 03:23:59;;;;;;;11.32;10.52;;;;;;;;;;5030799;28;20401;-93
2022/08/12 03:26:27;;;;;;;11.40;10.20;;;;;;;;;;5069947;23;20426;-93
2022/08/12 03:28:57;;;;;;;11.00;10.20;;;;;;;;;;5141609;23;20431;-92
2022/08/12 03:31:32;;;;;;;11.07;10.38;;;;;;;;;;4998412;28;20475;-93
2022/08/12 03:34:11;;;;;;;10.63;10.02;;;;;;;;;;4979271;28;20408;-90
2022/08/12 03:36:38;;;;;;;10.63;10.13;;;;;;;;;;4978341;28;20480;-93
2022/08/12 03:41:54;;;;;;;10.70;10.10;;;;;;;;;;4991914;28;20464;-93
2022/08/12 04:00:25;;;;;;;11.80;10.98;;;;;;;;;;4956281;29;20423;-94
2022/08/12 04:05:28;;;;;;;10.80;10.10;;;;;;;;;;5856922;23;20283;-87
2022/08/12 04:07:54;;;;;;;11.17;10.37;;;;;;;;;;4976925;28;20528;-94
2022/08/12 04:10:20;;;;;;;10.30;9.80;;;;;;;;;;4967795;28;20929;-88
2022/08/12 04:13:15;;;;;;;10.47;9.77;;;;;;;;;;4967151;28;20438;-87
2022/08/12 04:15:44;;;;;;;10.07;9.57;;;;;;;;;;4974778;28;20948;-88
2022/08/12 04:18:11;;;;;;;11.23;10.53;;;;;;;;;;4952265;28;20464;-87
2022/08/12 04:20:37;;;;;;;11.40;10.40;;;;;;;;;;4971635;28;20418;-88
2022/08/12 04:23:04;;;;;;;10.83;10.00;;;;;;;;;;4952982;28;20189;-88
2022/08/12 04:25:31;;;;;;;10.40;9.80;;;;;;;;;;4953465;28;20559;-87
2022/08/12 04:27:57;;;;;;;10.83;10.20;;;;;;;;;;4974940;28;20457;-88
2022/08/12 04:30:23;;;;;;;10.77;9.83;;;;;;;;;;4960321;28;20425;-88
2022/08/12 04:32:50;;;;;;;10.43;9.50;;;;;;;;;;4948083;28;20476;-88
2022/08/12 04:35:17;;;;;;;11.40;10.60;;;;;;;;;;4956300;28;20437;-89
2022/08/12 04:37:43;;;;;;;10.60;10.00;;;;;;;;;;4963892;28;20444;-88
2022/08/12 04:40:12;;;;;;;10.77;10.10;;;;;;;;;;4974519;28;20461;-88
2022/08/12 04:42:38;;;;;;;9.97;9.47;;;;;;;;;;4964607;28;20810;-87
2022/08/12 04:45:06;;;;;;;10.27;9.77;;;;;;;;;;4965663;28;20434;-88
2022/08/12 04:47:32;;;;;;;14.85;11.35;;;;;;;;;;4271584;28;10000776;-87
2022/08/12 04:49:58;;;;;;;15.03;11.30;;;;;;;;;;4968923;28;20252;-87
2022/08/12 04:52:24;;;;;;;12.00;11.07;;;;;;;;;;4952280;28;21188;-88
2022/08/12 04:54:51;;;;;;;10.93;10.03;;;;;;;;;;4953741;28;20405;-88
2022/08/12 04:57:17;;;;;;;10.63;9.67;;;;;;;;;;4965802;28;21262;-89
2022/08/12 04:59:43;;;;;;;11.13;10.43;;;;;;;;;;4953836;28;20504;-87
2022/08/12 05:02:09;;;;;;;12.33;11.07;;;;;;;;;;4955350;28;20448;-87
2022/08/12 05:04:36;;;;;;;10.77;9.73;;;;;;;;;;4970509;28;20592;-89
2022/08/12 05:07:02;;;;;;;11.27;10.23;;;;;;;;;;4972558;28;20575;-87
2022/08/12 05:09:28;;;;;;;11.20;10.50;;;;;;;;;;4953194;28;20576;-88
2022/08/12 05:11:54;;;;;;;12.17;11.27;;;;;;;;;;4958526;28;20445;-88
2022/08/12 05:14:20;;;;;;;11.37;10.67;;;;;;;;;;4954458;28;20440;-89
2022/08/12 05:16:46;;;;;;;11.93;10.77;;;;;;;;;;4953447;28;20433;-88
2022/08/12 05:19:12;;;;;;;11.37;10.70;;;;;;;;;;4954019;28;20465;-87
2022/08/12 05:21:39;;;;;;;10.83;10.03;;;;;;;;;;4954176;28;20975;-87
2022/08/12 05:24:05;;;;;;;10.20;9.50;;;;;;;;;;4948018;28;20448;-87
2022/08/12 05:26:33;;;;;;;10.77;9.63;;;;;;;;;;4948336;28;20631;-88
2022/08/12 05:28:59;;;;;;;10.50;9.50;;;;;;;;;;4954039;28;20484;-87
2022/08/12 05:31:25;;;;;;;10.43;9.53;;;;;;;;;;4946830;28;20453;-88
2022/08/12 05:33:52;;;;;;;10.40;9.70;;;;;;;;;;4960032;28;20483;-88
2022/08/12 05:36:19;;;;;;;13.20;10.07;;;;;;;;;;4964863;28;20434;-88
2022/08/12 05:38:55;;;;;;;12.80;9.60;;;;;;;;;;4961621;28;20437;-88
2022/08/12 05:41:24;;;;;;;9.50;8.60;;;;;;;;;;4955539;28;20448;-88
2022/08/12 05:43:52;;;;;;;9.30;8.80;;;;;;;;;;4952713;28;20484;-87
2022/08/12 05:46:22;;;;;;;9.50;8.90;;;;;;;;;;4954129;28;20461;-89
2022/08/12 05:48:49;;;;;;;9.47;8.97;;;;;;;;;;4972804;28;20431;-87
2022/08/12 05:51:16;;;;;;;9.53;9.03;;;;;;;;;;4958498;28;20437;-87
2022/08/12 05:53:43;;;;;;;9.13;8.70;;;;;;;;;;4956930;28;20434;-86
2022/08/12 05:56:22;;;;;;;8.80;8.03;;;;;;;;;;4952554;28;20437;-87
2022/08/12 05:58:50;;;;;;;9.90;9.00;;;;;;;;;;4953565;28;21078;-87
2022/08/12 06:01:16;;;;;;;9.70;9.13;;;;;;;;;;4953706;28;20452;-87
2022/08/12 06:03:42;;;;;;;9.37;8.47;;;;;;;;;;4949693;28;20441;-86
2022/08/12 06:06:09;;;;;;;9.33;8.63;;;;;;;;;;4953929;28;20461;-87
2022/08/12 06:08:35;;;;;;;9.60;8.70;;;;;;;;;;4948778;28;20473;-87
2022/08/12 06:11:03;;;;;;;10.90;10.10;;;;;;;;;;4955848;28;20472;-87
2022/08/12 06:13:35;;;;;;;8.77;8.17;;;;;;;;;;4950020;28;20436;-87
2022/08/12 06:16:01;;;;;;;8.30;7.83;;;;;;;;;;4928951;28;20464;-87
2022/08/12 06:18:29;;;;;;;9.00;8.40;;;;;;;;;;4952996;28;20437;-87
2022/08/12 06:20:57;;;;;;;8.27;7.83;;;;;;;;;;4957249;28;20465;-89
2022/08/12 06:23:27;;;;;;;8.03;7.63;;;;;;;;;;4956506;28;20429;-89
2022/08/12 06:25:59;;;;;;;9.07;8.47;;;;;;;;;;4956158;28;20502;-90
2022/08/12 06:28:27;;;;;;;8.83;8.00;;;;;;;;;;4972938;28;20481;-89
2022/08/12 06:30:54;;;;;;;9.60;8.57;;;;;;;;;;4964602;28;20464;-89
2022/08/12 06:33:20;;;;;;;10.10;7.50;;;;;;;;;;4971266;28;20495;-92
2022/08/12 06:35:48;;;;;;;8.23;7.70;;;;;;;;;;4943473;29;20461;-90
2022/08/12 06:38:40;;;;;;;8.43;8.03;;;;;;;;;;4965773;28;20511;-92
2022/08/12 06:44:19;;;;;;;8.47;7.70;;;;;;;;;;5088568;23;20590;-91
2022/08/12 07:16:50;;;;;;;6.50;6.10;;;;;;;;;;4244124;23;21018;-88
2022/08/12 07:36:31;;;;;;;;;;;;;;;;;;;;;
2022/08/12 07:44:18;;;;;;;5.70;5.40;;;;;;;;;;5669423;23;20477;-91
2022/08/12 08:00:39;;;;;;;5.97;5.67;;;;;;;;;;5019456;28;20835;-88
2022/08/12 08:03:07;;;;;;;5.10;4.90;;;;;;;;;;4978302;28;20466;-87
2022/08/12 08:05:44;;;;;;;5.77;5.27;;;;;;;;;;4984683;28;20550;-87
2022/08/12 08:08:12;;;;;;;4.83;4.47;;;;;;;;;;4977171;28;20595;-88
2022/08/12 08:10:40;;;;;;;6.80;5.23;;;;;;;;;;4992159;28;20454;-88
2022/08/12 08:13:11;;;;;;;5.23;3.37;;;;;;;;;;4985056;28;20455;-88
2022/08/12 08:15:38;;;;;;;3.30;3.20;;;;;;;;;;4987381;28;20447;-88
2022/08/12 08:18:15;;;;;;;3.30;3.13;;;;;;;;;;4985598;28;20462;-88
2022/08/12 08:20:43;;;;;;;3.30;3.20;;;;;;;;;;5005917;28;20427;-88
2022/08/12 08:23:10;;;;;;;3.80;3.70;;;;;;;;;;4976779;28;20431;-89
2022/08/12 08:25:37;;;;;;;4.30;4.07;;;;;;;;;;4995556;28;20470;-89
2022/08/12 08:28:09;;;;;;;3.90;3.30;;;;;;;;;;4993268;28;20455;-89
2022/08/12 08:30:37;;;;;;;3.73;3.20;;;;;;;;;;4989689;28;20424;-88
2022/08/12 08:33:04;;;;;;;3.17;2.90;;;;;;;;;;4989116;28;20447;-86
2022/08/12 08:35:30;;;;;;;2.80;2.80;;;;;;;;;;4985185;28;20427;-87
2022/08/12 08:38:05;;;;;;;4.70;3.37;;;;;;;;;;4984449;28;20550;-87
2022/08/12 08:43:16;;;;;;;2.77;2.67;;;;;;;;;;5000174;28;20450;-87
2022/08/12 08:45:47;;;;;;;3.03;2.93;;;;;;;;;;4994468;28;20479;-87
2022/08/12 08:48:13;;;;;;;2.67;2.60;;;;;;;;;;4994779;28;20455;-88
2022/08/12 08:50:44;;;;;;;3.10;3.00;;;;;;;;;;4998427;28;20947;-87
2022/08/12 08:53:11;;;;;;;3.00;2.90;;;;;;;;;;4993728;28;20447;-88
2022/08/12 08:55:38;;;;;;;3.67;3.37;;;;;;;;;;4986236;28;20914;-86
2022/08/12 08:58:04;;;;;;;7.50;4.13;;;;;;;;;;4309949;28;10000737;-87
2022/08/12 09:00:30;;;;;;;3.60;3.27;;;;;;;;;;4994561;28;20282;-86
2022/08/12 09:02:57;;;;;;;3.87;3.67;;;;;;;;;;5007825;28;20440;-88
2022/08/12 09:05:22;;;;;;;3.27;3.07;;;;;;;;;;4988121;28;20821;-87
2022/08/12 09:07:49;;;;;;;3.30;3.10;;;;;;;;;;4988609;28;20993;-89
2022/08/12 09:10:18;;;;;;;4.07;3.20;;;;;;;;;;4992306;28;20428;-86
2022/08/12 09:15:30;;;;;;;3.90;3.90;;;;;;;;;;5003037;28;20458;-87
2022/08/12 09:17:59;;;;;;;2.20;2.20;;;;;;;;;;4986751;28;20467;-87
2022/08/12 09:20:27;;;;;;;3.03;2.87;;;;;;;;;;4990887;28;20432;-90
2022/08/12 09:22:54;;;;;;;3.67;2.33;;;;;;;;;;5002848;28;20489;-86
2022/08/12 09:25:27;;;;;;;2.60;2.50;;;;;;;;;;4991277;28;20446;-87
2022/08/12 09:27:54;;;;;;;3.90;3.60;;;;;;;;;;4996335;28;20909;-86
2022/08/12 09:30:20;;;;;;;2.53;2.53;;;;;;;;;;5001205;28;20462;-90
2022/08/12 09:32:50;;;;;;;6.20;5.97;;;;;;;;;;5010535;28;20468;-87
2022/08/12 09:35:22;;;;;;;3.60;2.90;;;;;;;;;;4983153;28;20571;-88
2022/08/12 09:37:49;;;;;;;2.70;2.70;;;;;;;;;;4985095;28;20479;-88
2022/08/12 09:40:16;;;;;;;4.77;2.97;;;;;;;;;;4655502;28;10000098;-87
2022/08/12 09:45:30;;;;;;;2.80;2.70;;;;;;;;;;5011935;28;20540;-87
2022/08/12 09:48:02;;;;;;;2.80;2.70;;;;;;;;;;5002836;28;20493;-88
2022/08/12 09:50:29;;;;;;;3.60;3.40;;;;;;;;;;4997361;28;20742;-87
2022/08/12 09:53:07;;;;;;;4.27;3.10;;;;;;;;;;4991819;28;20439;-86
2022/08/12 09:55:34;;;;;;;3.57;2.77;;;;;;;;;;5001454;28;20420;-86
2022/08/12 09:58:01;;;;;;;3.90;3.37;;;;;;;;;;5004049;28;20523;-87
2022/08/12 10:00:27;;;;;;;3.40;3.30;;;;;;;;;;4995012;28;20585;-86
2022/08/12 10:03:11;;;;;;;3.40;3.20;;;;;;;;;;5014904;28;20423;-86
2022/08/12 10:05:42;;;;;;;3.60;3.50;;;;;;;;;;4998907;28;20463;-87
2022/08/12 10:08:09;;;;;;;3.27;3.17;;;;;;;;;;4990996;28;20447;-87
2022/08/12 10:16:21;;;;;;;4.37;3.97;;;;;;;;;;5003820;28;20524;-84
2022/08/12 10:18:55;;;;;;;3.77;3.50;;;;;;;;;;4979887;28;20791;-87
2022/08/12 10:21:21;;;;;;;5.53;3.30;;;;;;;;;;4988122;28;20782;-86
2022/08/12 10:23:48;;;;;;;4.50;3.53;;;;;;;;;;4984770;28;20447;-87
2022/08/12 10:31:52;;;;;;;3.17;2.97;;;;;;;;;;5004329;28;20439;-86
2022/08/12 10:34:21;;;;;;;2.97;2.90;;;;;;;;;;5006187;28;20430;-84
2022/08/12 10:36:48;;;;;;;2.43;2.43;;;;;;;;;;4668406;28;10000820;-84
2022/08/12 10:39:16;;;;;;;2.80;2.70;;;;;;;;;;4982373;28;20467;-86
2022/08/12 10:44:28;;;;;;;3.17;2.90;;;;;;;;;;4993826;28;20498;-86
2022/08/12 10:46:54;;;;;;;4.00;3.50;;;;;;;;;;4988461;28;20459;-86
2022/08/12 10:49:26;;;;;;;3.67;3.50;;;;;;;;;;5005924;28;20443;-86
2022/08/12 10:51:53;;;;;;;3.07;2.87;;;;;;;;;;4973431;28;20439;-87
2022/08/12 10:54:20;;;;;;;4.33;3.00;;;;;;;;;;4995891;28;20443;-86
2022/08/12 10:56:48;;;;;;;3.50;3.40;;;;;;;;;;4993214;28;20825;-85
2022/08/12 10:59:14;;;;;;;3.10;3.00;;;;;;;;;;4992246;28;20464;-85
2022/08/12 11:01:41;;;;;;;3.23;3.03;;;;;;;;;;4982555;28;20436;-85
2022/08/12 11:04:12;;;;;;;3.80;3.60;;;;;;;;;;4993834;28;20808;-85
2022/08/12 11:06:46;;;;;;;4.33;3.93;;;;;;;;;;4986617;28;20474;-84
2022/08/12 11:09:19;;;;;;;4.00;3.80;;;;;;;;;;4984583;28;20459;-85
2022/08/12 11:11:49;;;;;;;2.77;2.67;;;;;;;;;;4992686;28;20427;-86
2022/08/12 11:14:34;;;;;;;3.10;2.90;;;;;;;;;;4990885;28;20452;-85
2022/08/12 11:17:01;;;;;;;7.00;3.43;;;;;;;;;;4984386;28;20488;-86
2022/08/12 11:19:27;;;;;;;2.80;2.80;;;;;;;;;;5008123;28;20440;-85
2022/08/12 11:21:54;;;;;;;3.03;3.03;;;;;;;;;;4981314;28;20433;-85
2022/08/12 11:24:20;;;;;;;3.87;3.77;;;;;;;;;;4975703;28;21193;-86
2022/08/12 11:26:48;;;;;;;2.80;2.77;;;;;;;;;;4996092;28;20517;-86
2022/08/12 11:29:14;;;;;;;3.63;3.43;;;;;;;;;;5008115;28;20450;-85
2022/08/12 11:31:40;;;;;;;4.33;3.03;;;;;;;;;;5001240;28;20520;-84
2022/08/12 11:34:06;;;;;;;2.50;2.30;;;;;;;;;;5000652;28;20734;-86
2022/08/12 11:36:32;;;;;;;3.13;3.03;;;;;;;;;;5002046;28;20428;-85
2022/08/12 11:38:58;;;;;;;3.63;3.30;;;;;;;;;;5004014;28;20842;-85
2022/08/12 11:41:24;;;;;;;2.83;2.73;;;;;;;;;;4982322;28;20432;-85
2022/08/12 11:43:50;;;;;;;3.00;2.83;;;;;;;;;;4985901;28;20428;-88
2022/08/12 11:46:20;;;;;;;2.77;2.67;;;;;;;;;;5014515;28;20459;-86
2022/08/12 11:48:46;;;;;;;2.40;2.30;;;;;;;;;;4989344;28;20514;-87
2022/08/12 11:51:12;;;;;;;2.20;2.20;;;;;;;;;;4647529;28;10000259;-87
2022/08/12 11:53:38;;;;;;;2.67;2.47;;;;;;;;;;4984604;28;20185;-87
2022/08/12 11:56:05;;;;;;;8.70;2.50;;;;;;;;;;4991201;28;20488;-86
2022/08/12 11:58:34;;;;;;;3.13;3.00;;;;;;;;;;4982238;28;20525;-86
2022/08/12 12:01:00;;;;;;;3.80;3.50;;;;;;;;;;4988384;28;20424;-88
2022/08/12 12:03:26;;;;;;;2.83;2.73;;;;;;;;;;4991709;28;20603;-88
2022/08/12 12:05:52;;;;;;;3.37;3.10;;;;;;;;;;5000478;28;20494;-85
2022/08/12 12:08:22;;;;;;;2.63;2.57;;;;;;;;;;5003532;28;20455;-86
2022/08/12 12:10:49;;;;;;;2.80;2.70;;;;;;;;;;4996380;28;20423;-87
2022/08/12 12:13:15;;;;;;;5.00;4.23;;;;;;;;;;4997450;28;20535;-87
2022/08/12 12:15:41;;;;;;;3.53;3.50;;;;;;;;;;5000083;28;20574;-87
2022/08/12 12:18:19;;;;;;;5.27;5.07;;;;;;;;;;4991494;28;20446;-87
2022/08/12 12:20:45;;;;;;;2.27;2.27;;;;;;;;;;4990120;28;20473;-84
2022/08/12 12:23:11;;;;;;;2.40;2.40;;;;;;;;;;4982697;28;20432;-87
2022/08/12 12:25:38;;;;;;;2.93;2.83;;;;;;;;;;4990555;28;20469;-86
2022/08/12 12:28:04;;;;;;;3.23;2.90;;;;;;;;;;4998119;28;20432;-86
2022/08/12 12:30:30;;;;;;;11.10;3.00;;;;;;;;;;4987207;28;20456;-86
2022/08/12 12:32:56;;;;;;;2.60;2.50;;;;;;;;;;4999822;28;20435;-86
2022/08/12 12:35:22;;;;;;;2.53;2.50;;;;;;;;;;4997413;28;20450;-87
2022/08/12 12:37:56;;;;;;;6.47;6.07;;;;;;;;;;5002428;28;20430;-87
2022/08/12 12:40:23;;;;;;;4.43;4.20;;;;;;;;;;5001964;28;20469;-86
2022/08/12 12:42:49;;;;;;;2.20;2.20;;;;;;;;;;5005694;28;20435;-88
2022/08/12 12:45:16;;;;;;;2.63;2.53;;;;;;;;;;4998019;28;21184;-88
2022/08/12 12:48:27;;;;;;;2.43;2.33;;;;;;;;;;5003973;28;20623;-89
2022/08/12 12:54:04;;;;;;;3.70;3.50;;;;;;;;;;5024493;28;20439;-89
2022/08/12 12:56:31;;;;;;;2.60;2.50;;;;;;;;;;5002679;28;20493;-89
2022/08/12 12:58:58;;;;;;;4.03;3.93;;;;;;;;;;4986583;28;20484;-90
2022/08/12 13:01:32;;;;;;;2.50;2.40;;;;;;;;;;4992501;28;20459;-89
2022/08/12 13:04:03;;;;;;;2.70;2.60;;;;;;;;;;4997712;28;20450;-88
2022/08/12 13:06:30;;;;;;;2.13;2.13;;;;;;;;;;4992447;28;20498;-88
2022/08/12 13:08:56;;;;;;;2.97;2.87;;;;;;;;;;4983015;28;20447;-90
2022/08/12 13:11:24;;;;;;;3.67;2.50;;;;;;;;;;4984851;28;20415;-89
2022/08/12 13:13:54;;;;;;;2.60;2.47;;;;;;;;;;5005161;28;20519;-90
2022/08/12 13:16:21;;;;;;;2.60;2.50;;;;;;;;;;4997157;28;20462;-88
2022/08/12 13:18:48;;;;;;;2.57;2.57;;;;;;;;;;4998243;28;20436;-87
2022/08/12 13:21:17;;;;;;;3.77;2.77;;;;;;;;;;4986618;28;20452;-90
2022/08/12 13:23:50;;;;;;;2.67;2.57;;;;;;;;;;5001571;28;20464;-90
2022/08/12 13:26:17;;;;;;;3.17;2.50;;;;;;;;;;4990933;28;20468;-89
2022/08/12 13:28:46;;;;;;;3.40;2.40;;;;;;;;;;5012149;28;20431;-90
2022/08/12 13:31:15;;;;;;;2.80;2.70;;;;;;;;;;4996629;28;20439;-90
2022/08/12 13:33:41;;;;;;;2.07;2.07;;;;;;;;;;4993638;28;20555;-89
2022/08/12 13:36:09;;;;;;;3.23;2.93;;;;;;;;;;5005058;28;20511;-90
2022/08/12 13:38:38;;;;;;;3.13;2.23;;;;;;;;;;5015818;28;20456;-89
2022/08/12 13:41:08;;;;;;;2.37;2.17;;;;;;;;;;5023383;28;20403;-87
2022/08/12 13:43:34;;;;;;;2.60;2.50;;;;;;;;;;5001971;28;20540;-89
2022/08/12 13:46:01;;;;;;;2.87;2.27;;;;;;;;;;5000070;28;20864;-87
2022/08/12 13:48:28;;;;;;;3.20;2.63;;;;;;;;;;5013051;28;21012;-87
2022/08/12 13:50:56;;;;;;;2.50;2.47;;;;;;;;;;4998044;28;20463;-89
2022/08/12 13:53:22;;;;;;;2.40;2.33;;;;;;;;;;4987114;28;20963;-89
2022/08/12 13:55:50;;;;;;;2.50;2.43;;;;;;;;;;4996850;28;20455;-88
2022/08/12 13:58:17;;;;;;;3.87;2.70;;;;;;;;;;5015023;28;20455;-88
2022/08/12 14:00:51;;;;;;;3.43;3.20;;;;;;;;;;5000215;28;20451;-88
2022/08/12 14:03:17;;;;;;;2.60;2.40;;;;;;;;;;5000546;28;20428;-88
2022/08/12 14:05:43;;;;;;;6.60;2.50;;;;;;;;;;4994159;28;20864;-84
2022/08/12 14:08:11;;;;;;;1.87;1.77;;;;;;;;;;4974447;28;20858;-86
2022/08/12 14:10:42;;;;;;;2.27;2.27;;;;;;;;;;5008456;28;20451;-87
2022/08/12 14:13:15;;;;;;;2.50;2.40;;;;;;;;;;4993381;28;20998;-87
2022/08/12 14:15:45;;;;;;;2.67;2.67;;;;;;;;;;5007405;28;20442;-85
2022/08/12 14:18:15;;;;;;;2.73;2.63;;;;;;;;;;5005141;28;20492;-86
2022/08/12 14:20:43;;;;;;;2.70;2.50;;;;;;;;;;5013015;28;20423;-85
2022/08/12 14:23:09;;;;;;;3.33;2.90;;;;;;;;;;5011630;28;20786;-85
2022/08/12 14:25:36;;;;;;;2.37;2.27;;;;;;;;;;5008711;28;20466;-85
2022/08/12 14:28:03;;;;;;;2.40;2.40;;;;;;;;;;4983842;28;20697;-85
2022/08/12 14:30:29;;;;;;;2.60;2.43;;;;;;;;;;5010409;28;20443;-85
2022/08/12 14:32:56;;;;;;;2.33;2.33;;;;;;;;;;4985220;28;20464;-86
2022/08/12 14:35:22;;;;;;;2.30;2.20;;;;;;;;;;5009291;28;20459;-85
2022/08/12 14:37:48;;;;;;;2.67;2.53;;;;;;;;;;4982905;28;20436;-87
2022/08/12 14:40:15;;;;;;;2.80;2.80;;;;;;;;;;4986728;28;20432;-86
2022/08/12 14:42:41;;;;;;;2.33;2.07;;;;;;;;;;4982999;28;20433;-86
2022/08/12 14:45:08;;;;;;;3.13;2.73;;;;;;;;;;5010040;28;20478;-86
2022/08/12 14:47:34;;;;;;;2.80;2.70;;;;;;;;;;4992542;28;20491;-86
2022/08/12 14:50:00;;;;;;;2.57;2.57;;;;;;;;;;4990810;28;20475;-85
2022/08/12 14:52:26;;;;;;;2.93;2.60;;;;;;;;;;4987537;28;20441;-87
2022/08/12 14:54:52;;;;;;;2.97;2.60;;;;;;;;;;5016417;28;20922;-87
2022/08/12 14:57:20;;;;;;;3.50;2.77;;;;;;;;;;5011028;28;20474;-86
2022/08/12 15:02:31;;;;;;;3.60;3.30;;;;;;;;;;4999648;28;20793;-86
2022/08/12 15:05:01;;;;;;;3.03;2.80;;;;;;;;;;4985392;28;20455;-85
2022/08/12 15:07:27;;;;;;;3.83;3.30;;;;;;;;;;4993539;28;20470;-85
2022/08/12 15:09:55;;;;;;;3.70;3.50;;;;;;;;;;4981016;28;20479;-85
2022/08/12 15:12:21;;;;;;;3.03;2.53;;;;;;;;;;4992667;28;20514;-85
2022/08/12 15:14:47;;;;;;;3.40;3.20;;;;;;;;;;4992403;28;20471;-85
2022/08/12 15:17:13;;;;;;;3.30;3.10;;;;;;;;;;4992196;28;20517;-85
2022/08/12 15:19:39;;;;;;;2.93;2.83;;;;;;;;;;4981052;28;20441;-86
2022/08/12 15:22:05;;;;;;;6.00;3.03;;;;;;;;;;4995090;28;20939;-86
2022/08/12 15:24:32;;;;;;;3.20;3.03;;;;;;;;;;4987630;28;20450;-86
2022/08/12 15:26:58;;;;;;;4.50;2.70;;;;;;;;;;4300730;28;10000736;-85
2022/08/12 15:29:27;;;;;;;3.50;2.60;;;;;;;;;;4989060;28;20283;-88
2022/08/12 15:31:57;;;;;;;8.50;7.87;;;;;;;;;;4989596;28;20416;-91
2022/08/12 15:34:24;;;;;;;7.33;6.93;;;;;;;;;;4993322;28;20448;-87
2022/08/12 15:36:50;;;;;;;2.97;2.80;;;;;;;;;;5009127;28;20430;-87
2022/08/12 15:39:19;;;;;;;8.10;3.23;;;;;;;;;;4985001;28;20522;-88
2022/08/12 15:41:45;;;;;;;3.10;3.00;;;;;;;;;;4980328;28;20437;-86
2022/08/12 15:44:11;;;;;;;2.47;2.40;;;;;;;;;;4987482;28;20444;-88
2022/08/12 15:46:38;;;;;;;2.80;2.60;;;;;;;;;;4993111;28;20518;-89
2022/08/12 15:49:04;;;;;;;2.47;2.47;;;;;;;;;;4989653;28;20411;-90
2022/08/12 15:51:31;;;;;;;3.00;2.80;;;;;;;;;;5001272;28;20514;-90
2022/08/12 15:54:03;;;;;;;3.03;2.93;;;;;;;;;;5000194;28;20524;-91
2022/08/12 15:56:30;;;;;;;2.70;2.50;;;;;;;;;;4989489;28;20443;-87
2022/08/12 15:58:59;;;;;;;2.40;2.40;;;;;;;;;;4992067;28;20543;-86
2022/08/12 16:01:29;;;;;;;3.13;2.93;;;;;;;;;;5011078;28;20806;-88
2022/08/12 16:03:56;;;;;;;3.93;3.63;;;;;;;;;;4992977;28;20497;-90
2022/08/12 16:06:25;;;;;;;5.90;2.50;;;;;;;;;;5010757;28;21048;-89
2022/08/12 16:08:51;;;;;;;2.67;2.57;;;;;;;;;;4988497;28;20594;-90
2022/08/12 16:11:20;;;;;;;2.33;2.23;;;;;;;;;;4978436;28;20764;-89
2022/08/12 16:13:46;;;;;;;2.50;2.50;;;;;;;;;;5006572;28;20471;-89
2022/08/12 16:16:15;;;;;;;3.33;2.73;;;;;;;;;;5002989;28;20458;-93
2022/08/12 16:18:43;;;;;;;3.80;2.40;;;;;;;;;;5009595;28;20420;-93
2022/08/12 16:21:13;;;;;;;2.43;2.33;;;;;;;;;;4998821;28;20428;-92
2022/08/12 16:23:41;;;;;;;4.30;2.70;;;;;;;;;;4997252;28;20462;-87
2022/08/12 16:26:08;;;;;;;2.50;2.50;;;;;;;;;;4983760;28;20448;-91
2022/08/12 16:28:34;;;;;;;3.27;2.80;;;;;;;;;;5013903;28;20447;-91
2022/08/12 16:31:04;;;;;;;3.13;2.40;;;;;;;;;;4999627;28;20453;-90
2022/08/12 16:33:34;;;;;;;2.90;2.47;;;;;;;;;;4995170;28;20456;-92
2022/08/12 16:36:03;;;;;;;3.17;3.00;;;;;;;;;;5024701;28;20423;-93
2022/08/12 16:38:29;;;;;;;3.93;3.00;;;;;;;;;;5010245;28;20503;-90
2022/08/12 16:41:03;;;;;;;5.70;2.60;;;;;;;;;;5024379;28;20431;-94
2022/08/12 16:43:33;;;;;;;4.83;3.37;;;;;;;;;;5022732;23;20527;-93
2022/08/12 17:01:35;;;;;;;4.27;3.30;;;;;;;;;;4659722;28;10000501;-89
2022/08/12 17:04:09;;;;;;;2.53;2.43;;;;;;;;;;4981556;28;20208;-89
2022/08/12 17:06:40;;;;;;;2.67;2.67;;;;;;;;;;4978207;28;20513;-89
2022/08/12 17:09:06;;;;;;;5.33;4.17;;;;;;;;;;4980287;28;20879;-89
2022/08/12 17:11:35;;;;;;;2.53;2.53;;;;;;;;;;4999557;28;20488;-89
2022/08/12 17:14:02;;;;;;;2.20;2.20;;;;;;;;;;4979544;28;20460;-88
2022/08/12 17:16:28;;;;;;;2.40;2.40;;;;;;;;;;4971986;28;20428;-89
2022/08/12 17:18:54;;;;;;;2.30;2.30;;;;;;;;;;4965866;28;20463;-88
2022/08/12 17:21:23;;;;;;;2.53;2.47;;;;;;;;;;4971440;28;20436;-88
2022/08/12 17:23:52;;;;;;;2.80;2.70;;;;;;;;;;4968666;28;20484;-88
2022/08/12 17:26:18;;;;;;;3.00;2.70;;;;;;;;;;4991708;28;20869;-88
2022/08/12 17:28:45;;;;;;;3.80;2.90;;;;;;;;;;4974286;28;20449;-87
2022/08/12 17:31:12;;;;;;;6.10;4.23;;;;;;;;;;4968201;28;20528;-86
2022/08/12 17:33:38;;;;;;;2.13;2.13;;;;;;;;;;4973045;28;20427;-89
2022/08/12 17:36:06;;;;;;;2.37;2.23;;;;;;;;;;4971284;28;20449;-89
2022/08/12 17:38:35;;;;;;;2.33;2.33;;;;;;;;;;4968235;28;21182;-88
2022/08/12 17:41:01;;;;;;;3.07;2.90;;;;;;;;;;4970958;28;20452;-88
2022/08/12 17:43:27;;;;;;;2.63;2.43;;;;;;;;;;4972308;28;20459;-89
2022/08/12 17:45:54;;;;;;;3.63;3.30;;;;;;;;;;4992779;28;20605;-89
2022/08/12 17:48:21;;;;;;;3.37;3.27;;;;;;;;;;4973418;28;20466;-88
2022/08/12 17:50:48;;;;;;;2.87;2.77;;;;;;;;;;4973225;28;20444;-88
2022/08/12 17:53:15;;;;;;;3.40;3.20;;;;;;;;;;4973197;28;20435;-88
2022/08/12 17:55:43;;;;;;;2.33;2.23;;;;;;;;;;4997669;28;20513;-91
2022/08/12 17:58:10;;;;;;;2.80;2.60;;;;;;;;;;4978076;28;20437;-89
2022/08/12 18:00:37;;;;;;;3.20;3.20;;;;;;;;;;4973724;28;20448;-88
2022/08/12 18:03:03;;;;;;;3.53;3.40;;;;;;;;;;4968805;28;20447;-89
2022/08/12 18:05:30;;;;;;;2.50;2.40;;;;;;;;;;4973242;28;21345;-90
2022/08/12 18:07:56;;;;;;;2.40;2.30;;;;;;;;;;4976272;28;20962;-89
2022/08/12 18:16:39;;;;;;;3.13;2.90;;;;;;;;;;4993353;28;20479;-92
2022/08/12 18:19:08;;;;;;;2.30;2.10;;;;;;;;;;4983782;28;20433;-91
2022/08/12 18:21:34;;;;;;;3.73;2.33;;;;;;;;;;4984326;28;20547;-90
2022/08/12 18:24:11;;;;;;;3.10;2.83;;;;;;;;;;4992594;28;20504;-90
2022/08/12 18:26:53;;;;;;;4.77;3.57;;;;;;;;;;5005036;28;20470;-92
2022/08/12 18:44:57;;;;;;;5.20;4.70;;;;;;;;;;5113318;23;20479;-90
2022/08/12 18:47:30;;;;;;;3.77;3.57;;;;;;;;;;4993119;28;20467;-91
2022/08/12 18:49:56;;;;;;;4.30;4.00;;;;;;;;;;4987346;28;20475;-89
2022/08/12 18:55:10;;;;;;;3.13;3.03;;;;;;;;;;5047004;23;20527;-90
2022/08/12 18:57:51;;;;;;;3.30;3.03;;;;;;;;;;4977659;28;20436;-91
2022/08/12 19:00:20;;;;;;;4.07;3.13;;;;;;;;;;4991370;28;20444;-91
2022/08/12 19:02:55;;;;;;;2.70;2.70;;;;;;;;;;5012862;28;20492;-94
2022/08/12 19:05:23;;;;;;;4.70;4.60;;;;;;;;;;5020522;23;20730;-88
2022/08/12 19:07:57;;;;;;;4.67;2.47;;;;;;;;;;4994630;28;20460;-91
2022/08/12 19:10:27;;;;;;;3.80;3.37;;;;;;;;;;5091709;23;20505;-91
2022/08/12 19:33:49;;;;;;;4.97;4.50;;;;;;;;;;5031149;23;20493;-92
2022/08/12 19:41:56;;;;;;;4.70;4.40;;;;;;;;;;3994169;23;20496;-95
2022/08/12 19:44:29;;;;;;;5.23;4.87;;;;;;;;;;4964916;29;20518;-94
2022/08/12 20:49:21;;;;;;;4.07;3.87;;;;;;;;;;2654969;23;20439;-95
2022/08/12 20:51:48;;;;;;;3.90;3.77;;;;;;;;;;4995453;28;20437;-94
2022/08/12 20:54:17;;;;;;;4.23;3.83;;;;;;;;;;4957375;28;20462;-92
2022/08/12 20:56:44;;;;;;;3.80;3.50;;;;;;;;;;4980283;28;20440;-93
2022/08/12 20:59:40;;;;;;;4.40;4.20;;;;;;;;;;5050626;23;20532;-92
2022/08/12 21:02:12;;;;;;;4.50;4.10;;;;;;;;;;4999294;23;20425;-95
2022/08/12 21:07:45;;;;;;;3.80;3.70;;;;;;;;;;4998323;28;20479;-95
2022/08/12 21:10:14;;;;;;;4.17;4.00;;;;;;;;;;5014844;28;20432;-93
2022/08/12 21:12:40;;;;;;;4.20;4.10;;;;;;;;;;4993848;28;20436;-95
2022/08/12 21:15:10;;;;;;;3.70;3.40;;;;;;;;;;4995858;28;20440;-95
2022/08/12 21:17:40;;;;;;;3.40;3.30;;;;;;;;;;4972684;28;20497;-94
2022/08/12 21:20:13;;;;;;;7.10;4.93;;;;;;;;;;4993205;28;20424;-96
2022/08/12 21:22:43;;;;;;;5.63;3.37;;;;;;;;;;5073725;23;20484;-93
2022/08/12 21:25:09;;;;;;;5.90;3.83;;;;;;;;;;5176380;23;20499;-95
2022/08/12 21:27:44;;;;;;;6.30;4.37;;;;;;;;;;4986007;28;20480;-95
2022/08/12 21:30:16;;;;;;;3.60;3.40;;;;;;;;;;4972239;28;20484;-94
2022/08/12 21:32:45;;;;;;;4.50;3.77;;;;;;;;;;5004623;28;20417;-93
2022/08/12 21:35:14;;;;;;;4.97;4.67;;;;;;;;;;4969555;28;20810;-95
2022/08/12 21:37:41;;;;;;;6.70;5.27;;;;;;;;;;4988200;28;20436;-93
2022/08/12 21:40:16;;;;;;;4.37;4.17;;;;;;;;;;4990824;28;20429;-94
2022/08/12 21:42:46;;;;;;;6.67;3.67;;;;;;;;;;4983094;28;20419;-94
2022/08/12 21:45:12;;;;;;;3.90;3.80;;;;;;;;;;4980522;28;20429;-94
2022/08/12 21:47:43;;;;;;;7.63;4.03;;;;;;;;;;4985449;28;20982;-94